Gilgit Weather



Gilgit's Current Weather

Temprature 17.25o overcast clouds

overcast clouds

Rain: 0 %

Min Temprature17.25o
Max Temprature17.25o
Humidity65
Wind Speed0.5 m/h
Sun Rise04:51:32
Sun Set19:07:55
Current Time: 24-May-2022 07:11:02
Lat/Lon: 35.9221, 74.3087




Gilgit's Geo Location



Gilgit's Weather Forecast

Time Overall Temp Min Temp Max Temp Humidity Wind Speed Rain
24-May-2022 (Tue)
08:00:00 overcast clouds 18.050 18.050 18.050 60 0.54 m/h 0 %
11:00:00 overcast clouds 19.270 19.270 21.700 54 0.67 m/h 0 %
14:00:00 light rain 22.380 22.380 24.540 43 1.44 m/h 46 %
17:00:00 light rain 25.650 25.650 25.650 31 1.96 m/h 16 %
20:00:00 light rain 24.360 24.360 24.360 37 2.12 m/h 12 %
23:00:00 scattered clouds 22.700 22.700 22.700 45 1.49 m/h 0 %
25-May-2022 (Wed)
02:00:00 clear sky 21.320 21.320 21.320 50 1.55 m/h 0 %
05:00:00 clear sky 20.120 20.120 20.120 52 1.4 m/h 0 %
08:00:00 clear sky 23.130 23.130 23.130 36 0.84 m/h 0 %
11:00:00 clear sky 26.420 26.420 26.420 23 0.08 m/h 0 %
14:00:00 clear sky 29.070 29.070 29.070 16 0.39 m/h 0 %
17:00:00 clear sky 29.830 29.830 29.830 12 0.25 m/h 0 %
20:00:00 clear sky 27.930 27.930 27.930 21 1.68 m/h 0 %
23:00:00 clear sky 25.470 25.470 25.470 29 1.17 m/h 0 %
26-May-2022 (Thu)
02:00:00 clear sky 23.630 23.630 23.630 31 1.3 m/h 0 %
05:00:00 clear sky 21.880 21.880 21.880 31 1.6 m/h 0 %
08:00:00 clear sky 25.760 25.760 25.760 19 1.14 m/h 0 %
11:00:00 clear sky 28.830 28.830 28.830 15 0.21 m/h 0 %
14:00:00 clear sky 30.850 30.850 30.850 12 1.08 m/h 0 %
17:00:00 clear sky 31.100 31.100 31.100 12 0.65 m/h 0 %
20:00:00 scattered clouds 29.280 29.280 29.280 22 0.95 m/h 0 %
23:00:00 broken clouds 26.660 26.660 26.660 31 1.64 m/h 0 %
27-May-2022 (Fri)
02:00:00 clear sky 24.350 24.350 24.350 38 1.61 m/h 0 %
05:00:00 clear sky 22.830 22.830 22.830 41 1.49 m/h 0 %
08:00:00 clear sky 25.880 25.880 25.880 29 0.52 m/h 0 %
11:00:00 clear sky 29.160 29.160 29.160 22 0.91 m/h 0 %
14:00:00 scattered clouds 28.300 28.300 28.300 29 2.36 m/h 0 %
17:00:00 scattered clouds 28.890 28.890 28.890 27 1.89 m/h 0 %
20:00:00 broken clouds 26.570 26.570 26.570 35 1.3 m/h 0 %
23:00:00 light rain 22.500 22.500 22.500 55 1.53 m/h 60 %
28-May-2022 (Sat)
02:00:00 light rain 22.150 22.150 22.150 56 0.97 m/h 38 %
05:00:00 light rain 21.140 21.140 21.140 58 0.9 m/h 25 %
08:00:00 light rain 23.670 23.670 23.670 46 0.77 m/h 16 %
11:00:00 light rain 26.330 26.330 26.330 36 1.49 m/h 98 %
14:00:00 light rain 28.220 28.220 28.220 31 1.02 m/h 25 %
17:00:00 light rain 22.260 22.260 22.260 62 0.33 m/h 142 %
20:00:00 light rain 22.760 22.760 22.760 57 1.9 m/h 14 %
23:00:00 light rain 21.480 21.480 21.480 64 1.56 m/h 27 %
29-May-2022 (Sun)
02:00:00 light rain 20.850 20.850 20.850 65 1.24 m/h 19 %
05:00:00 light rain 20.340 20.340 20.340 66 0.78 m/h 14 %

Famous Cities (61)